Time;durP1;ratioP1;P1;durP2;ratioP2;P2;SDS_P1;SDS_P2;PMS_P1;PMS_P2;Temp;Humidity;BMP_temperature;BMP_pressure;BME280_temperature;BME280_humidity;BME280_pressure;Samples;Min_cycle;Max_cycle;Signal;HPM_P1;HPM_P2
2022/03/30 00:00:45;;;;;;;;;;;;;;;4.45;99.05;101013.38;5057346;28;20406;-74
2022/03/30 00:03:11;;;;;;;;;;;;;;;4.44;98.88;101009.06;5059648;28;19920;-75
2022/03/30 00:05:36;;;;;;;;;;;;;;;4.41;99.03;101016.06;5058563;28;19923;-75
2022/03/30 00:08:02;;;;;;;;;;;;;;;4.35;99.43;101016.19;5059784;28;19917;-75
2022/03/30 00:10:27;;;;;;;;;;;;;;;4.30;98.88;101018.88;5059428;28;19943;-74
2022/03/30 00:12:52;;;;;;;;;;;;;;;4.26;98.94;101017.19;5060788;28;20492;-74
2022/03/30 00:15:18;;;;;;;;;;;;;;;4.22;99.23;101016.41;5057568;28;19948;-75
2022/03/30 00:17:43;;;;;;;;;;;;;;;4.17;99.03;101013.00;5056996;28;21180;-74
2022/03/30 00:20:10;;;;;;;;;;;;;;;4.16;99.12;101006.97;5061587;28;19929;-75
2022/03/30 00:22:35;;;;;;;;;;;;;;;4.16;99.65;101006.09;5062093;28;19923;-73
2022/03/30 00:25:00;;;;;;;;;;;;;;;4.15;99.20;101010.44;5061328;28;19920;-74
2022/03/30 00:27:25;;;;;;;;;;;;;;;4.18;99.38;101002.59;5060744;28;19920;-74
2022/03/30 00:29:51;;;;;;;;;;;;;;;4.16;99.72;101001.75;5058480;28;20193;-75
2022/03/30 00:32:16;;;;;;;;;;;;;;;4.19;99.71;101000.84;5059830;28;20718;-75
2022/03/30 00:34:41;;;;;;;;;;;;;;;4.17;99.87;100998.28;5053973;28;19921;-74
2022/03/30 00:37:07;;;;;;;;;;;;;;;4.22;99.87;101002.53;5057286;28;19921;-73
2022/03/30 00:39:33;;;;;;;;;;;;;;;4.21;98.97;100998.19;5062768;28;19920;-74
2022/03/30 00:41:58;;;;;;;;;;;;;;;4.20;98.92;100991.28;5067943;28;19955;-74
2022/03/30 00:44:24;;;;;;;;;;;;;;;4.15;99.20;100989.66;5065130;28;19927;-76
2022/03/30 00:46:49;;;;;;;;;;;;;;;4.15;98.85;100989.66;5066690;28;19917;-74
2022/03/30 00:49:15;;;;;;;;;;;;;;;4.13;98.78;100988.81;5065863;28;19966;-74
2022/03/30 00:51:40;;;;;;;;;;;;;;;4.14;99.33;100987.94;5064847;28;19946;-74
2022/03/30 00:54:06;;;;;;;;;;;;;;;4.10;99.59;100986.25;5063808;28;19950;-75
2022/03/30 00:56:32;;;;;;;;;;;;;;;4.17;100.00;100990.47;5066304;28;19920;-74
2022/03/30 00:58:58;;;;;;;;;;;;;;;4.10;99.78;100981.06;5068138;28;20297;-73
2022/03/30 01:01:24;;;;;;;;;;;;;;;4.11;99.77;100974.97;5066754;28;19929;-73
2022/03/30 01:03:50;;;;;;;;;;;;;;;4.07;99.71;100977.66;5066277;28;20030;-73
2022/03/30 01:06:15;;;;;;;;;;;;;;;4.08;99.76;100976.78;5067355;28;19921;-73
2022/03/30 01:08:40;;;;;;;;;;;;;;;4.08;99.61;100972.41;5066614;28;19921;-74
2022/03/30 01:11:09;;;;;;;;;;;;;;;4.01;99.49;100970.81;5066964;28;20451;-74
2022/03/30 01:13:34;;;;;;;;;;;;;;;3.95;99.92;100976.97;5066144;28;20388;-72
2022/03/30 01:16:02;;;;;;;;;;;;;;;3.98;100.00;100969.13;5067409;28;20006;-73
2022/03/30 01:18:27;;;;;;;;;;;;;;;3.98;99.77;100968.25;5065805;28;19932;-73
2022/03/30 01:20:52;;;;;;;;;;;;;;;3.99;100.00;100967.38;5068209;28;19974;-72
2022/03/30 01:23:17;;;;;;;;;;;;;;;3.96;100.00;100963.09;5066684;28;19928;-72
2022/03/30 01:25:43;;;;;;;;;;;;;;;3.93;100.00;100957.09;5066661;28;20155;-73
2022/03/30 01:28:08;;;;;;;;;;;;;;;3.98;100.00;100969.13;5098900;28;20305;-73
2022/03/30 01:33:14;;;;;;;;;;;;;;;3.95;100.00;100956.19;5066530;28;19920;-73
2022/03/30 01:35:40;;;;;;;;;;;;;;;3.94;100.00;100959.66;5066722;28;19920;-72
2022/03/30 01:38:05;;;;;;;;;;;;;;;3.87;100.00;100952.88;5066758;28;19921;-73
2022/03/30 01:40:31;;;;;;;;;;;;;;;3.84;100.00;100951.19;5066145;28;19977;-73
2022/03/30 01:42:56;;;;;;;;;;;;;;;3.76;100.00;100945.25;5067218;28;19920;-72
2022/03/30 01:45:21;;;;;;;;;;;;;;;3.76;100.00;100947.84;5064686;28;19958;-73
2022/03/30 01:47:48;;;;;;;;;;;;;;;3.73;100.00;100945.31;5066023;28;19929;-73
2022/03/30 01:50:13;;;;;;;;;;;;;;;3.66;100.00;100930.69;5066078;28;19951;-74
2022/03/30 01:52:38;;;;;;;;;;;;;;;3.77;100.00;100931.38;5058963;28;19920;-73
2022/03/30 01:55:04;;;;;;;;;;;;;;;3.83;100.00;100925.22;5062053;28;19928;-74
2022/03/30 01:57:29;;;;;;;;;;;;;;;3.95;100.00;100930.19;5066900;28;19948;-72
2022/03/30 01:59:55;;;;;;;;;;;;;;;4.01;100.00;100924.91;5067241;28;20007;-73
2022/03/30 02:02:21;;;;;;;;;;;;;;;4.04;100.00;100921.38;5066541;28;19925;-73
2022/03/30 02:04:47;;;;;;;;;;;;;;;4.01;100.00;100922.31;5065751;28;19966;-73
2022/03/30 02:07:12;;;;;;;;;;;;;;;4.00;100.00;100919.72;5066467;28;19916;-73
2022/03/30 02:09:37;;;;;;;;;;;;;;;3.93;100.00;100913.75;5066047;28;20041;-73
2022/03/30 02:12:03;;;;;;;;;;;;;;;3.85;100.00;100905.25;5065480;28;19985;-72
2022/03/30 02:14:28;;;;;;;;;;;;;;;3.84;100.00;100901.81;5065435;28;19928;-73
2022/03/30 02:16:54;;;;;;;;;;;;;;;3.89;100.00;100906.03;5067842;28;19916;-73
2022/03/30 02:19:19;;;;;;;;;;;;;;;3.92;100.00;100893.84;5067036;28;19925;-73
2022/03/30 02:21:45;;;;;;;;;;;;;;;3.87;100.00;100903.50;5067372;28;19924;-73
2022/03/30 02:24:10;;;;;;;;;;;;;;;3.77;100.00;100899.34;5064746;28;19920;-73
2022/03/30 02:26:36;;;;;;;;;;;;;;;3.67;100.00;100893.44;5064071;28;19924;-74
2022/03/30 02:29:01;;;;;;;;;;;;;;;3.63;100.00;100889.19;5064274;28;19998;-74
2022/03/30 02:31:26;;;;;;;;;;;;;;;3.63;100.00;100884.84;5066061;28;19959;-73
2022/03/30 02:33:52;;;;;;;;;;;;;;;3.65;100.00;100882.19;5066172;28;20548;-72
2022/03/30 02:36:17;;;;;;;;;;;;;;;3.59;100.00;100880.56;5067174;28;19921;-72
2022/03/30 02:38:43;;;;;;;;;;;;;;;3.54;100.00;100877.22;5066754;28;20006;-73
2022/03/30 02:41:09;;;;;;;;;;;;;;;3.52;100.00;100872.06;5066412;28;20353;-74
2022/03/30 02:43:34;;;;;;;;;;;;;;;3.51;100.00;100877.25;5067130;28;19923;-73
2022/03/30 02:46:00;;;;;;;;;;;;;;;3.46;100.00;100872.13;5068100;28;20289;-72
2022/03/30 02:48:28;;;;;;;;;;;;;;;3.44;100.00;100870.47;5045717;28;20523;-73
2022/03/30 02:50:55;;;;;;;;;;;;;;;3.40;100.00;100872.25;5045457;28;20002;-72
2022/03/30 02:53:20;;;;;;;;;;;;;;;3.36;100.00;100870.56;5045461;28;19924;-73
2022/03/30 02:55:45;;;;;;;;;;;;;;;3.29;100.00;100862.03;5045990;28;19935;-73
2022/03/30 02:58:11;;;;;;;;;;;;;;;3.24;100.00;100863.84;5045167;28;19921;-72
2022/03/30 03:00:37;;;;;;;;;;;;;;;3.18;100.00;100867.41;5046223;28;19944;-73
2022/03/30 03:03:03;;;;;;;;;;;;;;;3.17;100.00;100859.63;5046939;28;20251;-72
2022/03/30 03:05:32;;;;;;;;;;;;;;;3.17;100.00;100855.31;5094822;28;19923;-73
2022/03/30 03:07:59;;;;;;;;;;;;;;;3.33;100.00;100868.03;5050423;28;20294;-72
2022/03/30 03:10:24;;;;;;;;;;;;;;;3.30;100.00;100860.31;5045555;28;19943;-73
2022/03/30 03:12:49;;;;;;;;;;;;;;;3.26;100.00;100854.28;5045819;28;19929;-72
2022/03/30 03:15:14;;;;;;;;;;;;;;;3.28;100.00;100854.28;5046129;28;19917;-73
2022/03/30 03:17:40;;;;;;;;;;;;;;;3.27;100.00;100847.38;5046032;28;19920;-73
2022/03/30 03:20:05;;;;;;;;;;;;;;;3.30;100.00;100842.13;5045839;28;20702;-73
2022/03/30 03:22:31;;;;;;;;;;;;;;;3.29;100.00;100849.03;5045172;28;19952;-73
2022/03/30 03:24:56;;;;;;;;;;;;;;;3.24;100.00;100849.13;5046087;28;19917;-73
2022/03/30 03:27:21;;;;;;;;;;;;;;;3.24;100.00;100845.69;5098047;28;19943;-72
2022/03/30 03:29:47;;;;;;;;;;;;;;;3.21;100.00;100849.16;5066351;28;20292;-73
2022/03/30 03:32:12;;;;;;;;;;;;;;;3.20;100.00;100842.25;5066460;28;20011;-72
2022/03/30 03:34:37;;;;;;;;;;;;;;;3.20;100.00;100839.66;5065368;28;19967;-73
2022/03/30 03:37:03;;;;;;;;;;;;;;;3.28;100.00;100843.88;5063518;28;20507;-73
2022/03/30 03:39:28;;;;;;;;;;;;;;;3.22;100.00;100834.47;5065111;28;19916;-72
2022/03/30 03:41:54;;;;;;;;;;;;;;;3.20;100.00;100833.63;5063516;28;19925;-73
2022/03/30 03:44:19;;;;;;;;;;;;;;;3.17;100.00;100826.75;5063793;28;19921;-72
2022/03/30 03:46:44;;;;;;;;;;;;;;;3.12;100.00;100835.50;5064567;28;20457;-72
2022/03/30 03:49:09;;;;;;;;;;;;;;;3.15;100.00;100833.69;5066464;28;19921;-73
2022/03/30 03:51:35;;;;;;;;;;;;;;;3.18;100.00;100831.06;5066937;28;19961;-74
2022/03/30 03:54:00;;;;;;;;;;;;;;;3.19;100.00;100834.50;5066517;28;19970;-74
2022/03/30 03:56:25;;;;;;;;;;;;;;;3.26;100.00;100830.91;5060289;28;19995;-74
2022/03/30 03:58:52;;;;;;;;;;;;;;;3.30;100.00;100835.19;5063512;28;19921;-73
2022/03/30 04:01:17;;;;;;;;;;;;;;;3.32;100.00;100823.03;5064409;28;19921;-72
2022/03/30 04:03:42;;;;;;;;;;;;;;;3.28;100.00;100831.75;5065954;28;19938;-73
2022/03/30 04:06:08;;;;;;;;;;;;;;;3.22;100.00;100826.66;5057670;28;20007;-73
2022/03/30 04:08:34;;;;;;;;;;;;;;;3.18;100.00;100823.28;5064156;28;19916;-74
2022/03/30 04:10:59;;;;;;;;;;;;;;;3.16;100.00;100819.84;5067189;28;19927;-73
2022/03/30 04:13:25;;;;;;;;;;;;;;;3.14;100.00;100825.94;5069965;28;19962;-73
2022/03/30 04:15:51;;;;;;;;;;;;;;;3.17;100.00;100826.75;5069562;28;19956;-73
2022/03/30 04:18:16;;;;;;;;;;;;;;;3.18;100.00;100827.59;5069769;28;20426;-73
2022/03/30 04:20:43;;;;;;;;;;;;;;;3.25;100.00;100827.47;5069610;28;20274;-73
2022/03/30 04:23:09;;;;;;;;;;;;;;;3.36;100.00;100827.28;5069635;28;19944;-74
2022/03/30 04:25:34;;;;;;;;;;;;;;;3.51;100.00;100826.19;5071134;28;20373;-73
2022/03/30 04:27:59;;;;;;;;;;;;;;;3.62;100.00;100825.97;5070407;28;19962;-74
2022/03/30 04:30:25;;;;;;;;;;;;;;;3.70;100.00;100818.88;5070580;28;19916;-73
2022/03/30 04:32:51;;;;;;;;;;;;;;;3.79;100.00;100819.63;5069798;28;19985;-74
2022/03/30 04:35:21;;;;;;;;;;;;;;;3.87;100.00;100817.72;5069528;28;20503;-74
2022/03/30 04:37:47;;;;;;;;;;;;;;;3.95;100.00;100821.03;5070236;28;19928;-75
2022/03/30 04:40:12;;;;;;;;;;;;;;;4.00;100.00;100815.72;5066110;28;19917;-74
2022/03/30 04:42:37;;;;;;;;;;;;;;;4.02;100.00;100814.78;5058883;28;19921;-74
2022/03/30 04:45:03;;;;;;;;;;;;;;;4.05;100.00;100811.31;5068701;28;19951;-74
2022/03/30 04:47:28;;;;;;;;;;;;;;;4.09;100.00;100809.50;5072222;28;19916;-76
2022/03/30 04:49:54;;;;;;;;;;;;;;;4.14;100.00;100798.13;5065381;28;19917;-75
2022/03/30 04:52:19;;;;;;;;;;;;;;;4.21;100.00;100805.78;5059916;28;20619;-75
2022/03/30 04:54:44;;;;;;;;;;;;;;;4.27;100.00;100801.31;5062572;28;19923;-74
2022/03/30 04:57:10;;;;;;;;;;;;;;;4.33;100.00;100795.13;5063791;28;19917;-75
2022/03/30 04:59:35;;;;;;;;;;;;;;;4.38;100.00;100793.28;5072901;28;20592;-74
2022/03/30 05:02:00;;;;;;;;;;;;;;;4.42;100.00;100797.50;5062366;28;19968;-75
2022/03/30 05:04:26;;;;;;;;;;;;;;;4.45;100.00;100797.44;5069035;28;19917;-75
2022/03/30 05:06:51;;;;;;;;;;;;;;;4.48;100.00;100788.72;5066598;28;19927;-75
2022/03/30 05:09:16;;;;;;;;;;;;;;;4.52;100.00;100795.56;5066768;28;19916;-75
2022/03/30 05:11:42;;;;;;;;;;;;;;;4.60;100.00;100793.63;5065959;28;19920;-75
2022/03/30 05:14:07;;;;;;;;;;;;;;;4.62;100.00;100785.81;5062318;28;19932;-75
2022/03/30 05:16:33;;;;;;;;;;;;;;;4.64;100.00;100782.28;5063009;28;20327;-75
2022/03/30 05:18:59;;;;;;;;;;;;;;;4.64;100.00;100773.59;5057572;28;19928;-74
2022/03/30 05:21:25;;;;;;;;;;;;;;;4.62;100.00;100772.81;5062443;28;19916;-73
2022/03/30 05:23:50;;;;;;;;;;;;;;;4.62;100.00;100780.63;5062923;28;19924;-74
2022/03/30 05:26:15;;;;;;;;;;;;;;;4.62;100.00;100780.63;5069365;28;19951;-75
2022/03/30 05:28:42;;;;;;;;;;;;;;;4.63;100.00;100780.56;5070236;28;20820;-75
2022/03/30 05:31:07;;;;;;;;;;;;;;;4.71;100.00;100779.53;5069119;28;19970;-75
2022/03/30 05:33:32;;;;;;;;;;;;;;;4.72;100.00;100776.91;5069813;28;19924;-75
2022/03/30 05:35:58;;;;;;;;;;;;;;;4.79;100.00;100777.63;5070171;28;19974;-75
2022/03/30 05:38:24;;;;;;;;;;;;;;;4.80;99.98;100779.31;5069967;28;20479;-74
2022/03/30 05:40:50;;;;;;;;;;;;;;;4.82;100.00;100776.69;5069089;28;19959;-74
2022/03/30 05:43:15;;;;;;;;;;;;;;;4.92;100.00;100773.81;5069784;28;19959;-74
2022/03/30 05:45:40;;;;;;;;;;;;;;;4.95;99.58;100770.28;5069816;28;19956;-74
2022/03/30 05:48:06;;;;;;;;;;;;;;;4.98;100.00;100778.00;5101640;28;19920;-75
2022/03/30 05:50:31;;;;;;;;;;;;;;;5.04;99.84;100771.78;5071116;28;19982;-75
2022/03/30 05:52:57;;;;;;;;;;;;;;;5.07;100.00;100775.16;5068494;28;19924;-73
2022/03/30 05:55:22;;;;;;;;;;;;;;;5.08;99.86;100774.28;5084401;28;19920;-74
2022/03/30 05:57:47;;;;;;;;;;;;;;;5.06;100.00;100768.28;5067598;28;20007;-74
2022/03/30 06:00:14;;;;;;;;;;;;;;;5.10;99.97;100772.50;5069072;28;19924;-73
2022/03/30 06:02:39;;;;;;;;;;;;;;;5.12;99.90;100767.28;5069749;28;20374;-75
2022/03/30 06:05:05;;;;;;;;;;;;;;;5.15;99.96;100768.94;5069517;28;19917;-75
2022/03/30 06:07:31;;;;;;;;;;;;;;;5.12;100.00;100767.28;5071527;28;19969;-74
2022/03/30 06:09:56;;;;;;;;;;;;;;;5.18;99.90;100774.06;5069098;28;20007;-74
2022/03/30 06:12:24;;;;;;;;;;;;;;;5.16;99.90;100776.69;5068863;28;19959;-74
2022/03/30 06:14:50;;;;;;;;;;;;;;;5.16;99.96;100775.84;5067826;28;19950;-74
2022/03/30 06:17:17;;;;;;;;;;;;;;;5.17;100.00;100775.81;5069052;28;20003;-73
2022/03/30 06:19:45;;;;;;;;;;;;;;;5.22;100.00;100776.56;5069589;28;19966;-73
2022/03/30 06:22:11;;;;;;;;;;;;;;;5.22;100.00;100784.38;5068428;28;19917;-74
2022/03/30 06:24:37;;;;;;;;;;;;;;;5.22;99.07;100775.69;5067875;28;19920;-74
2022/03/30 06:27:04;;;;;;;;;;;;;;;5.21;98.99;100777.44;5065188;28;19948;-73
2022/03/30 06:29:30;;;;;;;;;;;;;;;5.23;98.60;100778.28;5067646;28;19928;-74
2022/03/30 06:31:55;;;;;;;;;;;;;;;5.25;99.03;100773.00;5064423;28;19925;-74
2022/03/30 06:34:20;;;;;;;;;;;;;;;5.29;98.66;100776.38;5067475;28;19920;-74
2022/03/30 06:36:45;;;;;;;;;;;;;;;5.31;97.65;100769.41;5068809;28;19924;-74
2022/03/30 06:39:11;;;;;;;;;;;;;;;5.38;97.52;100773.53;5068783;28;19920;-74
2022/03/30 06:41:36;;;;;;;;;;;;;;;5.42;96.10;100776.03;5067427;28;19928;-74
2022/03/30 06:44:01;;;;;;;;;;;;;;;5.55;95.42;100770.47;5067490;28;20392;-74
2022/03/30 06:46:28;;;;;;;;;;;;;;;5.39;93.98;100763.09;5069218;28;20010;-74
2022/03/30 06:48:54;;;;;;;;;;;;;;;5.63;94.34;100758.09;5067520;28;20368;-74
2022/03/30 06:51:19;;;;;;;;;;;;;;;5.64;93.28;100761.56;5067969;28;19948;-74
2022/03/30 06:53:44;;;;;;;;;;;;;;;5.69;92.88;100759.66;5068455;28;19916;-73
2022/03/30 06:56:10;;;;;;;;;;;;;;;5.56;92.23;100753.94;5077534;28;20297;-74
2022/03/30 06:58:35;;;;;;;;;;;;;;;5.56;91.77;100756.56;5064140;28;19962;-74
2022/03/30 07:01:00;;;;;;;;;;;;;;;5.69;92.78;100757.94;5067968;28;19925;-74
2022/03/30 07:03:27;;;;;;;;;;;;;;;5.85;91.87;100752.28;5068270;28;19917;-74
2022/03/30 07:05:53;;;;;;;;;;;;;;;6.25;90.34;100745.06;5068490;28;19931;-74
2022/03/30 07:10:59;;;;;;;;;;;;;;;6.15;88.08;100729.69;5067937;28;19921;-74
2022/03/30 07:13:24;;;;;;;;;;;;;;;6.01;86.19;100724.91;5067551;28;19924;-74
2022/03/30 07:15:49;;;;;;;;;;;;;;;6.19;85.30;100713.06;5068281;28;19920;-74
2022/03/30 07:18:14;;;;;;;;;;;;;;;6.31;84.36;100718.81;5067940;28;20503;-74
2022/03/30 07:20:40;;;;;;;;;;;;;;;6.23;84.86;100719.03;5067533;28;19927;-75
2022/03/30 07:23:06;;;;;;;;;;;;;;;6.33;84.40;100725.66;5083059;28;20301;-73
2022/03/30 07:25:31;;;;;;;;;;;;;;;6.44;83.01;100711.44;5058050;28;20297;-74
2022/03/30 07:27:58;;;;;;;;;;;;;;;6.48;83.37;100711.28;5064150;28;19917;-74
2022/03/30 07:30:24;;;;;;;;;;;;;;;6.58;81.42;100706.63;5067325;28;19921;-75
2022/03/30 07:32:51;;;;;;;;;;;;;;;6.50;80.66;100701.66;5099340;28;20378;-74
2022/03/30 07:35:18;;;;;;;;;;;;;;;6.53;80.73;100698.09;5067692;28;19916;-74
2022/03/30 07:37:43;;;;;;;;;;;;;;;6.47;79.52;100695.69;5068745;28;20540;-75
2022/03/30 07:40:10;;;;;;;;;;;;;;;6.71;79.43;100693.19;5068288;28;19977;-75
2022/03/30 07:42:36;;;;;;;;;;;;;;;6.63;78.54;100686.44;5069246;28;20305;-74
2022/03/30 07:45:03;;;;;;;;;;;;;;;6.89;78.17;100681.28;5068238;28;19929;-74
2022/03/30 07:47:29;;;;;;;;;;;;;;;7.11;78.60;100683.97;5073938;28;19924;-74
2022/03/30 07:49:55;;;;;;;;;;;;;;;6.98;78.31;100691.41;5071630;28;20003;-75
2022/03/30 07:52:20;;;;;;;;;;;;;;;7.02;78.95;100695.59;5071328;28;20008;-73
2022/03/30 07:54:47;;;;;;;;;;;;;;;7.11;78.30;100695.28;5071750;28;19955;-74
2022/03/30 07:57:12;;;;;;;;;;;;;;;7.06;79.59;100691.09;5069401;28;19917;-74
2022/03/30 07:59:37;;;;;;;;;;;;;;;7.36;79.66;100683.97;5069661;28;19991;-73
2022/03/30 08:02:02;;;;;;;;;;;;;;;7.41;79.04;100676.81;5069469;28;19916;-73
2022/03/30 08:04:28;;;;;;;;;;;;;;;7.99;76.62;100670.28;5072326;28;19923;-72
2022/03/30 08:06:53;;;;;;;;;;;;;;;7.65;79.08;100681.19;5070335;28;20269;-72
2022/03/30 08:09:19;;;;;;;;;;;;;;;7.55;77.53;100671.06;5069983;28;19916;-74
2022/03/30 08:11:44;;;;;;;;;;;;;;;7.74;78.61;100670.38;5084081;28;20618;-72
2022/03/30 08:14:11;;;;;;;;;;;;;;;8.44;75.58;100655.44;5067588;28;19928;-74
2022/03/30 08:16:37;;;;;;;;;;;;;;;7.96;76.48;100659.97;5070876;28;19973;-73
2022/03/30 08:19:02;;;;;;;;;;;;;;;7.90;76.37;100670.66;5067087;28;19923;-73
2022/03/30 08:24:08;;;;;;;;;;;;;;;7.95;76.48;100667.84;5069053;28;20568;-73
2022/03/30 08:26:34;;;;;;;;;;;;;;;8.44;73.74;100650.22;5070009;28;19917;-73
2022/03/30 08:28:59;;;;;;;;;;;;;;;7.91;76.09;100661.06;5069183;28;19916;-73
2022/03/30 08:31:25;;;;;;;;;;;;;;;8.17;74.74;100658.25;5068714;28;20005;-74
2022/03/30 08:33:50;;;;;;;;;;;;;;;8.65;73.04;100642.41;5069507;28;20320;-73
2022/03/30 08:36:16;;;;;;;;;;;;;;;8.57;72.48;100644.50;5069687;28;19927;-73
2022/03/30 08:38:42;;;;;;;;;;;;;;;8.94;70.26;100627.19;5068722;28;19916;-74
2022/03/30 08:41:07;;;;;;;;;;;;;;;9.58;68.69;100612.16;5068233;28;19921;-73
2022/03/30 08:43:34;;;;;;;;;;;;;;;9.89;67.35;100600.19;5071538;28;19952;-71
2022/03/30 08:46:00;;;;;;;;;;;;;;;9.64;66.03;100596.09;5060098;28;19951;-73
2022/03/30 08:48:26;;;;;;;;;;;;;;;9.58;67.03;100609.53;5040584;28;19921;-73
2022/03/30 08:50:52;;;;;;;;;;;;;;;9.97;64.77;100595.44;5067710;28;19924;-73
2022/03/30 08:53:18;;;;;;;;;;;;;;;10.74;62.07;100582.91;5068019;28;20419;-73
2022/03/30 08:55:44;;;;;;;;;;;;;;;9.92;64.08;100601.81;5067398;28;20212;-72
2022/03/30 08:58:09;;;;;;;;;;;;;;;9.16;65.31;100598.28;5047006;28;19952;-73
2022/03/30 09:00:34;;;;;;;;;;;;;;;9.31;66.28;100612.47;5054516;28;19923;-72
2022/03/30 09:03:01;;;;;;;;;;;;;;;9.65;65.59;100607.44;5060779;28;19927;-75
2022/03/30 09:05:28;;;;;;;;;;;;;;;9.29;66.27;100611.69;5066203;28;19931;-73
2022/03/30 09:08:07;;;;;;;;;;;;;;;8.95;67.99;100626.28;5068648;28;20009;-72
2022/03/30 09:10:32;;;;;;;;;;;;;;;9.59;67.13;100616.47;5057716;28;20511;-73
2022/03/30 09:12:58;;;;;;;;;;;;;;;9.94;64.52;100602.59;5039136;28;19932;-73
2022/03/30 09:15:25;;;;;;;;;;;;;;;10.27;62.02;100600.09;5052755;28;19925;-73
2022/03/30 09:17:55;;;;;;;;;;;;;;;10.27;62.50;100594.84;5056194;28;19925;-74
2022/03/30 09:20:20;;;;;;;;;;;;;;;9.98;64.82;100615.50;5053432;28;20365;-73
2022/03/30 09:22:55;;;;;;;;;;;;;;;9.95;65.14;100613.00;5074647;28;19935;-73
2022/03/30 09:25:22;;;;;;;;;;;;;;;9.92;64.26;100620.19;5058278;28;19924;-73
2022/03/30 09:27:48;;;;;;;;;;;;;;;9.85;64.74;100622.25;5054029;28;19916;-74
2022/03/30 09:30:15;;;;;;;;;;;;;;;9.82;64.18;100625.88;5067836;28;19916;-73
2022/03/30 09:32:41;;;;;;;;;;;;;;;10.02;63.45;100622.31;5052806;28;19925;-73
2022/03/30 09:35:17;;;;;;;;;;;;;;;8.98;66.08;100640.09;5048013;28;19917;-73
2022/03/30 09:37:42;;;;;;;;;;;;;;;8.85;67.97;100649.44;5051050;28;19947;-74
2022/03/30 09:40:09;;;;;;;;;;;;;;;8.80;67.38;100641.78;5043692;28;19922;-72
2022/03/30 09:42:34;;;;;;;;;;;;;;;9.11;67.08;100648.31;5057936;28;19922;-74
2022/03/30 09:44:59;;;;;;;;;;;;;;;9.09;66.22;100634.41;5069246;28;19970;-73
2022/03/30 09:47:35;;;;;;;;;;;;;;;9.30;65.62;100623.03;5066948;28;19923;-73
2022/03/30 09:50:00;;;;;;;;;;;;;;;8.90;66.59;100621.25;5068289;28;19946;-73
2022/03/30 09:52:26;;;;;;;;;;;;;;;8.84;66.48;100629.38;5063553;28;19924;-73
2022/03/30 09:54:53;;;;;;;;;;;;;;;9.20;64.14;100606.88;5066841;28;19928;-73
2022/03/30 09:57:21;;;;;;;;;;;;;;;10.17;61.11;100589.22;5065218;28;19970;-73
2022/03/30 09:59:58;;;;;;;;;;;;;;;10.58;59.56;100577.59;5069591;28;19978;-73
2022/03/30 10:02:23;;;;;;;;;;;;;;;10.88;57.96;100568.19;5067152;28;20002;-74
2022/03/30 10:04:49;;;;;;;;;;;;;;;10.68;59.83;100585.84;5070575;28;19916;-74
2022/03/30 10:07:15;;;;;;;;;;;;;;;9.73;61.29;100595.66;5067016;28;19938;-74
2022/03/30 10:09:42;;;;;;;;;;;;;;;10.25;59.83;100575.72;5068242;28;19925;-73
2022/03/30 10:12:07;;;;;;;;;;;;;;;10.51;59.71;100574.44;5067657;28;19925;-75
2022/03/30 10:14:34;;;;;;;;;;;;;;;11.76;55.62;100548.47;5068041;28;20382;-74
2022/03/30 10:17:00;;;;;;;;;;;;;;;11.47;55.01;100547.47;5078291;28;19921;-73
2022/03/30 10:19:25;;;;;;;;;;;;;;;10.48;57.58;100571.09;5051558;28;19920;-75
2022/03/30 10:22:04;;;;;;;;;;;;;;;9.97;59.07;100582.31;5068242;28;19928;-75
2022/03/30 10:24:50;;;;;;;;;;;;;;;10.47;56.00;100559.75;5054236;28;20979;-74
2022/03/30 10:27:23;;;;;;;;;;;;;;;10.86;54.84;100560.38;5063967;28;19928;-73
2022/03/30 10:29:52;;;;;;;;;;;;;;;10.64;55.42;100566.75;5059174;28;19956;-74
2022/03/30 10:32:19;;;;;;;;;;;;;;;10.64;55.00;100569.38;5067434;28;19921;-75
2022/03/30 10:34:50;;;;;;;;;;;;;;;10.25;56.17;100569.59;5069390;28;19927;-72
2022/03/30 10:37:22;;;;;;;;;;;;;;;11.39;53.40;100553.19;5066094;28;19925;-74
2022/03/30 10:40:03;;;;;;;;;;;;;;;10.89;53.48;100644.34;5063988;28;20426;-72
2022/03/30 10:42:49;;;;;;;;;;;;;;;10.44;54.04;100650.97;5058547;28;19925;-74
2022/03/30 10:45:17;;;;;;;;;;;;;;;10.46;54.71;100659.63;5091760;28;20008;-73
2022/03/30 10:48:03;;;;;;;;;;;;;;;10.41;56.26;100656.38;5083705;28;19916;-74
2022/03/30 10:50:32;;;;;;;;;;;;;;;10.45;55.26;100663.19;5076263;28;19920;-73
2022/03/30 10:52:57;;;;;;;;;;;;;;;10.48;56.23;100663.00;5074216;28;19955;-74
2022/03/30 10:55:26;;;;;;;;;;;;;;;10.06;59.40;100672.88;5068651;28;19956;-74
2022/03/30 10:57:53;;;;;;;;;;;;;;;10.29;58.26;100669.16;5068785;28;19925;-74
2022/03/30 11:00:19;;;;;;;;;;;;;;;10.07;59.15;100674.59;5066732;28;19924;-74
2022/03/30 11:02:45;;;;;;;;;;;;;;;9.59;60.88;100679.41;5070606;28;19943;-73
2022/03/30 11:05:12;;;;;;;;;;;;;;;9.77;60.02;100661.13;5051870;28;20636;-72
2022/03/30 11:07:38;;;;;;;;;;;;;;;9.81;57.92;100655.66;5074326;28;19923;-73
2022/03/30 11:10:23;;;;;;;;;;;;;;;9.67;58.41;100651.06;5066535;28;19920;-73
2022/03/30 11:13:04;;;;;;;;;;;;;;;9.13;59.47;100662.19;5044367;28;19928;-73
2022/03/30 11:15:30;;;;;;;;;;;;;;;9.16;59.95;100642.84;5059073;28;19920;-74
2022/03/30 11:18:14;;;;;;;;;;;;;;;9.16;59.32;100649.84;5055790;28;20488;-75
2022/03/30 11:20:39;;;;;;;;;;;;;;;9.05;60.75;100648.56;5064497;28;19967;-74
2022/03/30 11:23:20;;;;;;;;;;;;;;;9.00;61.34;100647.03;5067326;28;19928;-74
2022/03/30 11:25:52;;;;;;;;;;;;;;;9.34;59.72;100640.31;5066230;28;19921;-74
2022/03/30 11:28:18;;;;;;;;;;;;;;;10.12;57.81;100629.75;5065406;28;19959;-74
2022/03/30 11:30:45;;;;;;;;;;;;;;;10.02;58.28;100626.69;5067642;28;19999;-75
2022/03/30 11:33:12;;;;;;;;;;;;;;;10.55;56.34;100625.03;5065517;28;19929;-74
2022/03/30 11:35:39;;;;;;;;;;;;;;;10.62;54.88;100622.94;5083194;28;20045;-74
2022/03/30 11:38:07;;;;;;;;;;;;;;;10.10;57.15;100626.34;5065169;28;20532;-74
2022/03/30 11:40:34;;;;;;;;;;;;;;;9.95;56.54;100614.81;5064910;28;19931;-74
2022/03/30 11:42:59;;;;;;;;;;;;;;;10.09;55.58;100620.22;5048975;28;19927;-75
2022/03/30 11:45:26;;;;;;;;;;;;;;;9.58;57.03;100615.59;5044035;28;19929;-73
2022/03/30 11:47:52;;;;;;;;;;;;;;;9.33;57.40;100623.75;5063693;28;19920;-73
2022/03/30 11:50:24;;;;;;;;;;;;;;;9.52;58.13;100622.91;5064866;28;19916;-74
2022/03/30 11:52:54;;;;;;;;;;;;;;;9.33;58.84;100617.63;5060545;28;20327;-75
2022/03/30 11:55:19;;;;;;;;;;;;;;;9.85;59.70;100611.75;5065344;28;19924;-74
2022/03/30 11:57:44;;;;;;;;;;;;;;;9.50;57.72;100602.00;5053935;28;19955;-73
2022/03/30 12:00:11;;;;;;;;;;;;;;;9.82;57.93;100601.41;5077763;28;19920;-73
2022/03/30 12:02:37;;;;;;;;;;;;;;;9.69;58.65;100601.13;5060801;28;19927;-73
2022/03/30 12:05:03;;;;;;;;;;;;;;;9.58;59.81;100599.88;5073491;28;19924;-74
2022/03/30 12:07:32;;;;;;;;;;;;;;;9.26;59.48;100606.59;5061719;28;20291;-78
2022/03/30 12:09:58;;;;;;;;;;;;;;;9.32;58.61;100606.31;5064219;28;19970;-77
2022/03/30 12:12:27;;;;;;;;;;;;;;;9.53;59.13;100601.88;5058018;28;20383;-76
2022/03/30 12:14:57;;;;;;;;;;;;;;;9.59;58.30;100603.34;5047428;28;20465;-73
2022/03/30 12:17:23;;;;;;;;;;;;;;;9.53;58.23;100599.25;5071899;28;19963;-74
2022/03/30 12:19:49;;;;;;;;;;;;;;;9.47;58.63;100601.31;5081980;28;19978;-73
2022/03/30 12:22:16;;;;;;;;;;;;;;;9.63;57.82;100591.78;5077479;28;19963;-71
2022/03/30 12:24:42;;;;;;;;;;;;;;;9.61;57.38;100584.91;5069082;28;19940;-71
2022/03/30 12:27:07;;;;;;;;;;;;;;;9.63;56.39;100586.53;5036577;28;19925;-72
2022/03/30 12:29:32;;;;;;;;;;;;;;;9.67;55.78;100580.22;5050693;28;19952;-70
2022/03/30 12:31:59;;;;;;;;;;;;;;;9.40;56.71;100593.69;5044358;28;19920;-73
2022/03/30 12:34:25;;;;;;;;;;;;;;;9.27;57.81;100598.66;5062739;28;20558;-73
2022/03/30 12:36:54;;;;;;;;;;;;;;;9.39;57.07;100592.00;5091774;28;19932;-71
2022/03/30 12:39:23;;;;;;;;;;;;;;;9.21;57.56;100588.44;5074159;28;19924;-73
2022/03/30 12:41:56;;;;;;;;;;;;;;;9.30;56.06;100587.19;5066625;28;19954;-72
2022/03/30 12:44:21;;;;;;;;;;;;;;;9.10;56.95;100575.84;5067616;28;19977;-74
2022/03/30 12:46:47;;;;;;;;;;;;;;;9.40;56.23;100571.88;5066342;28;19916;-73